地図

経路データ

SID SEASON NUMBER BASIN SUBBASIN NAME ISO_TIME NATURE LAT LON WMO_WIND WMO_PRES WMO_AGENCY TRACK_TYPE DIST2LAND LANDFALL IFLAG USA_AGENCY USA_ATCF_ID USA_LAT USA_LON USA_RECORD USA_STATUS USA_WIND USA_PRES USA_SSHS USA_R34_NE USA_R34_SE USA_R34_SW USA_R34_NW USA_R50_NE USA_R50_SE USA_R50_SW USA_R50_NW USA_R64_NE USA_R64_SE USA_R64_SW USA_R64_NW USA_POCI USA_ROCI USA_RMW USA_EYE TOKYO_LAT TOKYO_LON TOKYO_GRADE TOKYO_WIND TOKYO_PRES TOKYO_R50_DIR TOKYO_R50_LONG TOKYO_R50_SHORT TOKYO_R30_DIR TOKYO_R30_LONG TOKYO_R30_SHORT TOKYO_LAND CMA_LAT CMA_LON CMA_CAT CMA_WIND CMA_PRES HKO_LAT HKO_LON HKO_CAT HKO_WIND HKO_PRES NEWDELHI_LAT NEWDELHI_LON NEWDELHI_GRADE NEWDELHI_WIND NEWDELHI_PRES NEWDELHI_CI NEWDELHI_DP NEWDELHI_POCI REUNION_LAT REUNION_LON REUNION_TYPE REUNION_WIND REUNION_PRES REUNION_TNUM REUNION_CI REUNION_RMW REUNION_R34_NE REUNION_R34_SE REUNION_R34_SW REUNION_R34_NW REUNION_R50_NE REUNION_R50_SE REUNION_R50_SW REUNION_R50_NW REUNION_R64_NE REUNION_R64_SE REUNION_R64_SW REUNION_R64_NW BOM_LAT BOM_LON BOM_TYPE BOM_WIND BOM_PRES BOM_TNUM BOM_CI BOM_RMW BOM_R34_NE BOM_R34_SE BOM_R34_SW BOM_R34_NW BOM_R50_NE BOM_R50_SE BOM_R50_SW BOM_R50_NW BOM_R64_NE BOM_R64_SE BOM_R64_SW BOM_R64_NW BOM_ROCI BOM_POCI BOM_EYE BOM_POS_METHOD BOM_PRES_METHOD NADI_LAT NADI_LON NADI_CAT NADI_WIND NADI_PRES WELLINGTON_LAT WELLINGTON_LON WELLINGTON_WIND WELLINGTON_PRES DS824_LAT DS824_LON DS824_STAGE DS824_WIND DS824_PRES TD9636_LAT TD9636_LON TD9636_STAGE TD9636_WIND TD9636_PRES TD9635_LAT TD9635_LON TD9635_WIND TD9635_PRES TD9635_ROCI NEUMANN_LAT NEUMANN_LON NEUMANN_CLASS NEUMANN_WIND NEUMANN_PRES MLC_LAT MLC_LON MLC_CLASS MLC_WIND MLC_PRES USA_GUST BOM_GUST BOM_GUST_PER REUNION_GUST REUNION_GUST_PER USA_SEAHGT USA_SEARAD_NE USA_SEARAD_SE USA_SEARAD_SW USA_SEARAD_NW STORM_SPEED STORM_DIR
1967224N13253 1967 71 EP MM ILSA 1967-08-12 00:00:00 TS 13.3000 -106.900 45 hurdat_epa main 667 660 O________OO___ hurdat_epa EP081967 13.3000 -106.900 TS 45 0 13.3000 -106.900 TC 45 13.3000 -106.900 2 9 306
1967224N13253 1967 71 EP MM ILSA 1967-08-12 03:00:00 TS 13.5541 -107.259 main 664 660 P________PP___ EP081967 13.5501 -107.245 TS 45 0 13.5501 -107.245 TC 45 13.5702 -107.317 2 9 306
1967224N13253 1967 71 EP MM ILSA 1967-08-12 06:00:00 TS 13.8064 -107.621 45 hurdat_epa main 667 663 O________OP___ hurdat_epa EP081967 13.8000 -107.600 TS 45 0 13.8000 -107.600 TC 45 13.8319 -107.707 2 9 306
1967224N13253 1967 71 EP MM ILSA 1967-08-12 09:00:00 TS 14.0555 -107.981 main 664 660 P________PP___ EP081967 14.0500 -107.965 TS 45 0 14.0500 -107.965 TC 45 14.0777 -108.044 2 8 307
1967224N13253 1967 71 EP MM ILSA 1967-08-12 12:00:00 TS 14.3000 -108.300 45 hurdat_epa main 662 657 O________OO___ hurdat_epa EP081967 14.3000 -108.300 TS 45 0 14.3000 -108.300 TC 45 14.3000 -108.300 2 7 312
1967224N13253 1967 71 EP MM ILSA 1967-08-12 15:00:00 TS 14.5397 -108.540 main 657 643 P________PP___ EP081967 14.5499 -108.558 TS 45 0 14.5499 -108.558 TC 45 14.4991 -108.470 2 7 317
1967224N13253 1967 71 EP MM ILSA 1967-08-12 18:00:00 TS 14.7813 -108.768 45 hurdat_epa main 650 640 O________OP___ hurdat_epa EP081967 14.8000 -108.800 TS 45 0 14.8000 -108.800 TC 45 14.7064 -108.637 2 6 318
1967224N13253 1967 71 EP MM ILSA 1967-08-12 21:00:00 TS 15.0015 -108.973 main 648 640 P________PP___ EP081967 15.0117 -108.988 TS 45 0 15.0117 -108.988 TC 45 14.9605 -108.911 2 8 310
1967224N13253 1967 71 EP MM ILSA 1967-08-13 00:00:00 TS 15.3000 -109.400 45 hurdat_epa main 654 654 O________OO___ hurdat_epa EP081967 15.3000 -109.400 TS 45 0 15.3000 -109.400 TC 45 15.3000 -109.400 2 15 301
1967224N13253 1967 71 EP MM ILSA 1967-08-13 03:00:00 TS 15.7577 -110.284 main 686 686 P________PP___ EP081967 15.7478 -110.273 TS 45 0 15.7478 -110.273 TC 45 15.7971 -110.329 2 22 298
1967224N13253 1967 71 EP MM ILSA 1967-08-13 06:00:00 TS 16.3140 -111.414 45 hurdat_epa main 748 720 O________OP___ hurdat_epa EP081967 16.3000 -111.400 TS 45 0 16.3000 -111.400 TC 45 16.3700 -111.468 2 25 297
1967224N13253 1967 71 EP MM ILSA 1967-08-13 09:00:00 TS 16.9242 -112.629 main 723 710 P________PP___ EP081967 16.9160 -112.624 TS 45 0 16.9160 -112.624 TC 45 16.9570 -112.649 2 25 298
1967224N13253 1967 71 EP MM ILSA 1967-08-13 12:00:00 TS 17.5000 -113.700 45 hurdat_epa main 716 709 O________OO___ hurdat_epa EP081967 17.5000 -113.700 TS 45 0 17.5000 -113.700 TC 45 17.5000 -113.700 2 19 302
1967224N13253 1967 71 EP MM ILSA 1967-08-13 15:00:00 TS 17.9373 -114.307 main 716 707 P________PP___ EP081967 17.9362 -114.291 TS 45 0 17.9362 -114.291 TC 45 17.9417 -114.370 2 13 309
1967224N13253 1967 71 EP MM ILSA 1967-08-13 18:00:00 TS 18.3070 -114.738 45 hurdat_epa main 709 708 O________OP___ hurdat_epa EP081967 18.3000 -114.700 TS 45 0 18.3000 -114.700 TC 45 18.3351 -114.888 2 12 309
1967224N13253 1967 71 EP MM ILSA 1967-08-13 21:00:00 TS 18.6690 -115.250 main 715 715 P________PP___ EP081967 18.6648 -115.228 TS 45 0 18.6648 -115.228 TC 45 18.6861 -115.338 2 12 305
1967224N13253 1967 71 EP MM ILSA 1967-08-14 00:00:00 TS 19.0000 -115.800 45 hurdat_epa main 740 737 O________OO___ hurdat_epa EP081967 19.0000 -115.800 TS 45 0 19.0000 -115.800 TC 45 19.0000 -115.800 2 13 300
1967224N13253 1967 71 EP MM ILSA 1967-08-14 03:00:00 TS 19.3193 -116.437 main 748 745 P________PP___ EP081967 19.3225 -116.443 TS 45 0 19.3225 -116.443 TC 45 19.3065 -116.417 2 14 296
1967224N13253 1967 71 EP MM ILSA 1967-08-14 06:00:00 TS 19.5951 -117.092 45 hurdat_epa main 767 767 O________OP___ hurdat_epa EP081967 19.6000 -117.100 TS 45 0 19.6000 -117.100 TC 45 19.5754 -117.058 2 13 293
1967224N13253 1967 71 EP MM ILSA 1967-08-14 09:00:00 TS 19.8192 -117.717 main 794 794 P________PP___ EP081967 19.8224 -117.723 TS 45 0 19.8224 -117.723 TC 45 19.8065 -117.695 2 12 290
1967224N13253 1967 71 EP MM ILSA 1967-08-14 12:00:00 TS 20.0000 -118.300 45 hurdat_epa main 824 824 O________OO___ hurdat_epa EP081967 20.0000 -118.300 TS 45 0 20.0000 -118.300 TC 45 20.0000 -118.300 2 11 289
1967224N13253 1967 71 EP MM ILSA 1967-08-14 15:00:00 TS 20.1670 -118.820 main 850 850 P________PP___ EP081967 20.1647 -118.815 TS 52 0 20.1647 -118.815 TC 52 20.1763 -118.841 2 10 288
1967224N13253 1967 71 EP MM ILSA 1967-08-14 18:00:00 TS 20.3033 -119.309 60 hurdat_epa main 885 885 O________OP___ hurdat_epa EP081967 20.3000 -119.300 TS 60 0 20.3000 -119.300 TC 60 20.3163 -119.346 2 10 285
1967224N13253 1967 71 EP MM ILSA 1967-08-14 21:00:00 TS 20.4165 -119.806 main 921 921 P________PP___ EP081967 20.4149 -119.800 TS 52 0 20.4149 -119.800 TC 52 20.4233 -119.828 2 10 282
1967224N13253 1967 71 EP MM ILSA 1967-08-15 00:00:00 TS 20.5000 -120.300 45 hurdat_epa main 958 958 O________OO___ hurdat_epa EP081967 20.5000 -120.300 TS 45 0 20.5000 -120.300 TC 45 20.5000 -120.300 2 9 279
1967224N13253 1967 71 EP MM ILSA 1967-08-15 03:00:00 TS 20.5651 -120.807 main 982 982 P________PP___ EP081967 20.5649 -120.808 TS 45 0 20.5649 -120.808 TC 45 20.5658 -120.803 2 9 276
1967224N13253 1967 71 EP MM ILSA 1967-08-15 06:00:00 TS 20.6005 -121.299 45 hurdat_epa main 1017 1017 O________OP___ hurdat_epa EP081967 20.6000 -121.300 TS 45 0 20.6000 -121.300 TC 45 20.6024 -121.295 2 9 273
1967224N13253 1967 71 EP MM ILSA 1967-08-15 09:00:00 TS 20.6145 -121.771 main 1050 1050 P________PP___ EP081967 20.6149 -121.773 TS 45 0 20.6149 -121.773 TC 45 20.6128 -121.765 2 8 270
1967224N13253 1967 71 EP MM ILSA 1967-08-15 12:00:00 TS 20.6000 -122.200 45 hurdat_epa main 1077 1077 O________OO___ hurdat_epa EP081967 20.6000 -122.200 TS 45 0 20.6000 -122.200 TC 45 20.6000 -122.200 2 7 266
1967224N13253 1967 71 EP MM ILSA 1967-08-15 15:00:00 TS 20.5616 -122.564 main 1105 1105 P________PP___ EP081967 20.5573 -122.565 TS 45 0 20.5573 -122.565 TC 45 20.5786 -122.557 2 7 262
1967224N13253 1967 71 EP MM ILSA 1967-08-15 18:00:00 TS 20.5072 -122.897 45 hurdat_epa main 1134 1134 O________OP___ hurdat_epa EP081967 20.5000 -122.900 TS 45 0 20.5000 -122.900 TC 45 20.5360 -122.885 2 6 261
1967224N13253 1967 71 EP MM ILSA 1967-08-15 21:00:00 TS 20.4609 -123.226 main 1156 1156 P________PP___ EP081967 20.4573 -123.227 TS 45 0 20.4573 -123.227 TC 45 20.4754 -123.220 2 7 261
1967224N13253 1967 71 EP MM ILSA 1967-08-16 00:00:00 TS 20.4000 -123.600 45 hurdat_epa main 1193 1193 O________OO___ hurdat_epa EP081967 20.4000 -123.600 TS 45 0 20.4000 -123.600 TC 45 20.4000 -123.600 2 8 259
1967224N13253 1967 71 EP MM ILSA 1967-08-16 03:00:00 TS 20.3016 -124.072 main 1239 1239 P________PP___ EP081967 20.3075 -124.070 TS 45 0 20.3075 -124.070 TC 45 20.2781 -124.080 2 10 257
1967224N13253 1967 71 EP MM ILSA 1967-08-16 06:00:00 TS 20.1896 -124.601 45 hurdat_epa main 1284 1284 O________OP___ hurdat_epa EP081967 20.2000 -124.600 TS 45 0 20.2000 -124.600 TC 45 20.1478 -124.607 2 10 257
1967224N13253 1967 71 EP MM ILSA 1967-08-16 09:00:00 TS 20.0707 -125.151 main 1338 1338 P________PP___ EP081967 20.0775 -125.150 TS 45 0 20.0775 -125.150 TC 45 20.0436 -125.155 2 10 260
1967224N13253 1967 71 EP MM ILSA 1967-08-16 12:00:00 TS 20.0000 -125.700 45 hurdat_epa main 1385 1385 O________OO___ hurdat_epa EP081967 20.0000 -125.700 TS 45 0 20.0000 -125.700 TC 45 20.0000 -125.700 2 10 266
1967224N13253 1967 71 EP MM ILSA 1967-08-16 15:00:00 TS 20.0077 -126.211 main 1425 1425 P________PP___ EP081967 20.0048 -126.208 TS 45 0 20.0048 -126.208 TC 45 20.0195 -126.223 2 10 276
1967224N13253 1967 71 EP MM ILSA 1967-08-16 18:00:00 TS 20.1015 -126.708 45 hurdat_epa main 1459 1459 O________OP___ hurdat_epa EP081967 20.1000 -126.700 TS 45 0 20.1000 -126.700 TC 45 20.1073 -126.738 2 10 285
1967224N13253 1967 71 EP MM ILSA 1967-08-16 21:00:00 TS 20.2572 -127.213 main 1487 1487 P________PP___ EP081967 20.2549 -127.208 TS 45 0 20.2549 -127.208 TC 45 20.2665 -127.233 2 10 293
1967224N13253 1967 71 EP MM ILSA 1967-08-17 00:00:00 TS 20.5000 -127.700 45 hurdat_epa main 1517 1517 O________OO___ hurdat_epa EP081967 20.5000 -127.700 TS 45 0 20.5000 -127.700 TC 45 20.5000 -127.700 2 11 302
1967224N13253 1967 71 EP MM ILSA 1967-08-17 03:00:00 TS 20.8174 -128.164 main 1542 1536 P________PP___ EP081967 20.8199 -128.173 TS 45 0 20.8199 -128.173 TC 45 20.8074 -128.132 2 11 310
1967224N13253 1967 71 EP MM ILSA 1967-08-17 06:00:00 TS 21.1957 -128.590 45 hurdat_epa main 1554 1551 O________OP___ hurdat_epa EP081967 21.2000 -128.600 TS 45 0 21.2000 -128.600 TC 45 21.1729 -128.536 2 11 316
1967224N13253 1967 71 EP MM ILSA 1967-08-17 09:00:00 TS 21.6040 -128.974 main 1568 1562 P________PP___ EP081967 21.6074 -128.980 TS 45 0 21.6074 -128.980 TC 45 21.5770 -128.922 2 10 321
1967224N13253 1967 71 EP MM ILSA 1967-08-17 12:00:00 TS 22.0000 -129.300 45 hurdat_epa main 1574 1574 O________OO___ hurdat_epa EP081967 22.0000 -129.300 TS 45 0 22.0000 -129.300 TC 45 22.0000 -129.300 2 9 322
1967224N13253 1967 71 EP MM ILSA 1967-08-17 15:00:00 TS 22.3300 -129.588 main 1587 1583 P________P____ EP081967 22.3300 -129.588 TS 40 0 22.3300 -129.588 TC 40 2 8 322
1967224N13253 1967 71 EP MM ILSA 1967-08-17 18:00:00 MX 22.6000 -129.800 35 hurdat_epa main 1592 1584 O________O____ hurdat_epa EP081967 22.6000 -129.800 TS 35 0 22.6000 -129.800 35 2 6 327
1967224N13253 1967 71 EP MM ILSA 1967-08-17 21:00:00 MX 22.8150 -129.925 main 1584 1571 P________P____ EP081967 22.8150 -129.925 TS 35 0 22.8150 -129.925 35 2 4 335
1967224N13253 1967 71 EP MM ILSA 1967-08-18 00:00:00 MX 23.0000 -130.000 35 hurdat_epa main 1571 O________O____ hurdat_epa EP081967 23.0000 -130.000 TS 35 0 23.0000 -130.000 35 4 339

IBTrACS Databaseについて

本データベースは、米国NOAAが公開する1842年以降の世界の熱帯低気圧のベストトラックデータアーカイブInternational Best Track Archive for Climate Stewardship (IBTrACS)を、ウェブで閲覧しやすい形式に変換したものです。

最終更新日:2021-10-08